Alma, Arkansas
Current Conditions -  °F | °C
As of 8:53 PM on Friday 21 Nov 2014 (Local Time) from KFSM Reporting Station
Overcast Overcast  
Wind Chill:   Ceiling: 2100
Heat Index:   Visibility: 9mi
Dew Point:   Wind: 9mph
Humidity: 90%   Direction: 60°ENE
Pressure: 30.18"   Gusts: NA
Location:  35.48°N, 94.22°W
Report Text: KFSM 220253Z 06008KT 9SM OVC021 09/08 A3018 RMK AO2 SLP221 T00940078 53004
Loading
Personal Weather Stations






























Interactive Weather Map New forecast layout! Learn more

10-Day Weather Forecast

Advertisements
Track Severe Weather on mobile